createdAt,value
2023-05-02T00:00:05.565Z,233.64
2023-05-02T00:01:05.587Z,237.50
2023-05-02T00:02:05.665Z,235.73
2023-05-02T00:03:05.760Z,235.45
2023-05-02T00:04:05.792Z,232.93
2023-05-02T00:05:05.675Z,235.16
2023-05-02T00:06:05.741Z,237.21
2023-05-02T00:07:05.745Z,236.60
2023-05-02T00:08:05.734Z,231.72
2023-05-02T00:09:05.781Z,232.36
2023-05-02T00:10:05.768Z,232.93
2023-05-02T00:11:05.883Z,233.20
2023-05-02T00:12:05.866Z,234.24
2023-05-02T00:13:05.920Z,235.34
2023-05-02T00:14:05.943Z,236.82
2023-05-02T00:15:05.908Z,232.06
2023-05-02T00:16:05.952Z,235.25
2023-05-02T00:17:06.045Z,232.98
2023-05-02T00:18:06.038Z,231.96
2023-05-02T00:19:06.017Z,234.17
2023-05-02T00:20:06.106Z,231.59
2023-05-02T00:21:06.045Z,230.98
2023-05-02T00:22:06.095Z,231.44
2023-05-02T00:23:06.113Z,232.81
2023-05-02T00:24:06.166Z,231.60
2023-05-02T00:25:06.159Z,232.30
2023-05-02T00:26:06.153Z,233.59
2023-05-02T00:27:06.236Z,230.36
2023-05-02T00:28:06.256Z,229.48
2023-05-02T00:29:06.296Z,230.52
2023-05-02T00:30:06.301Z,231.68
2023-05-02T00:31:06.354Z,229.97
2023-05-02T00:32:06.365Z,232.19
2023-05-02T00:33:06.366Z,228.69
2023-05-02T00:34:06.386Z,230.34
2023-05-02T00:35:06.369Z,231.28
2023-05-02T00:36:06.426Z,233.40
2023-05-02T00:37:06.411Z,236.75
2023-05-02T00:38:06.446Z,236.67
2023-05-02T00:39:06.505Z,231.83
2023-05-02T00:40:06.527Z,231.54
2023-05-02T00:41:06.537Z,236.20
2023-05-02T00:42:06.572Z,232.39
2023-05-02T00:43:06.581Z,232.87
2023-05-02T00:44:06.965Z,227.65
2023-05-02T00:45:06.797Z,224.72
2023-05-02T00:46:06.696Z,233.46
2023-05-02T00:47:06.660Z,230.75
2023-05-02T00:48:06.825Z,228.19
2023-05-02T00:49:06.726Z,229.20
2023-05-02T00:50:06.754Z,225.65
2023-05-02T00:51:06.789Z,232.03
2023-05-02T00:52:06.798Z,229.16
2023-05-02T00:53:06.853Z,229.70
2023-05-02T00:54:06.838Z,229.43
2023-05-02T00:55:06.881Z,228.60
2023-05-02T00:56:06.873Z,232.82
2023-05-02T00:57:06.939Z,228.47
2023-05-02T00:58:06.972Z,228.65
2023-05-02T00:59:06.964Z,228.81
2023-05-02T01:00:07.062Z,231.91
2023-05-02T01:01:07.092Z,231.89
2023-05-02T01:02:07.209Z,231.50
2023-05-02T01:03:07.148Z,233.35
2023-05-02T01:04:07.285Z,229.86
2023-05-02T01:05:07.116Z,228.68
2023-05-02T01:06:07.229Z,225.20
2023-05-02T01:07:07.157Z,228.34
2023-05-02T01:08:07.218Z,225.11
2023-05-02T01:09:07.255Z,230.46
2023-05-02T01:10:07.206Z,229.12
2023-05-02T01:11:07.261Z,232.66
2023-05-02T01:12:07.292Z,226.89
2023-05-02T01:13:07.314Z,229.28
2023-05-02T01:14:07.323Z,229.03
2023-05-02T01:15:07.363Z,232.90
2023-05-02T01:16:07.424Z,227.84
2023-05-02T01:17:07.374Z,227.68
2023-05-02T01:18:07.447Z,232.03
2023-05-02T01:19:07.450Z,227.93
2023-05-02T01:20:07.483Z,227.33
2023-05-02T01:21:07.486Z,228.13
2023-05-02T01:22:07.547Z,228.29
2023-05-02T01:23:07.508Z,225.97
2023-05-02T01:24:07.867Z,230.55
2023-05-02T01:25:07.590Z,229.06
2023-05-02T01:26:07.578Z,228.13
2023-05-02T01:27:07.653Z,227.18
2023-05-02T01:28:07.670Z,227.83
2023-05-02T01:29:07.722Z,230.60
2023-05-02T01:30:07.751Z,224.34
2023-05-02T01:31:07.825Z,226.43
2023-05-02T01:32:07.875Z,227.79
2023-05-02T01:33:07.885Z,226.48
2023-05-02T01:34:07.802Z,225.36
2023-05-02T01:35:07.805Z,224.60
2023-05-02T01:36:07.848Z,224.75
2023-05-02T01:37:07.869Z,227.05
2023-05-02T01:38:07.877Z,228.42
2023-05-02T01:39:07.932Z,227.07
2023-05-02T01:40:07.932Z,228.93
2023-05-02T01:41:07.946Z,224.64
2023-05-02T01:42:08.008Z,225.87
2023-05-02T01:43:08.019Z,223.76
2023-05-02T01:44:08.052Z,221.72
2023-05-02T01:45:08.047Z,226.07
2023-05-02T01:46:08.061Z,229.36
2023-05-02T01:47:08.143Z,226.40
2023-05-02T01:48:08.192Z,231.25
2023-05-02T01:49:08.199Z,227.19
2023-05-02T01:50:08.206Z,229.57
2023-05-02T01:51:08.228Z,225.05
2023-05-02T01:52:08.232Z,226.81
2023-05-02T01:53:08.264Z,228.48
2023-05-02T01:54:08.309Z,228.58
2023-05-02T01:55:08.354Z,228.80
2023-05-02T01:56:08.356Z,229.71
2023-05-02T01:57:08.717Z,227.85
2023-05-02T01:58:08.382Z,227.09
2023-05-02T01:59:08.413Z,225.20
2023-05-02T02:00:08.436Z,227.45
2023-05-02T02:01:08.526Z,225.86
2023-05-02T02:02:08.489Z,227.88
2023-05-02T02:03:08.563Z,227.05
2023-05-02T02:04:08.571Z,226.57
2023-05-02T02:05:08.500Z,229.73
2023-05-02T02:06:08.616Z,224.15
2023-05-02T02:07:08.579Z,225.82
2023-05-02T02:08:08.632Z,227.72
2023-05-02T02:09:08.650Z,222.22
2023-05-02T02:10:08.650Z,229.09
2023-05-02T02:11:08.657Z,225.55
2023-05-02T02:12:08.713Z,225.54
2023-05-02T02:13:08.807Z,223.59
2023-05-02T02:14:08.780Z,224.11
2023-05-02T02:15:08.746Z,225.64
2023-05-02T02:16:09.157Z,224.16
2023-05-02T02:17:08.874Z,223.20
2023-05-02T02:18:08.910Z,224.24
2023-05-02T02:19:08.954Z,226.82
2023-05-02T02:20:08.888Z,223.85
2023-05-02T02:21:08.899Z,222.69
2023-05-02T02:22:08.911Z,224.33
2023-05-02T02:23:09.250Z,226.23
2023-05-02T02:24:08.996Z,226.37
2023-05-02T02:25:09.013Z,222.75
2023-05-02T02:26:09.026Z,224.06
2023-05-02T02:27:09.101Z,220.94
2023-05-02T02:28:09.104Z,222.39
2023-05-02T02:29:09.128Z,223.62
2023-05-02T02:30:09.153Z,226.49
2023-05-02T02:31:09.204Z,222.16
2023-05-02T02:32:09.222Z,225.57
2023-05-02T02:33:09.281Z,224.86
2023-05-02T02:34:09.237Z,229.11
2023-05-02T02:35:09.242Z,224.47
2023-05-02T02:36:09.365Z,225.38
2023-05-02T02:37:09.286Z,227.16
2023-05-02T02:38:09.318Z,223.63
2023-05-02T02:39:09.373Z,223.76
2023-05-02T02:40:09.363Z,226.61
2023-05-02T02:41:09.418Z,225.18
2023-05-02T02:42:09.427Z,225.83
2023-05-02T02:43:09.501Z,222.64
2023-05-02T02:44:09.904Z,226.61
2023-05-02T02:45:09.467Z,224.45
2023-05-02T02:46:09.593Z,226.48
2023-05-02T02:47:09.570Z,226.78
2023-05-02T02:48:09.633Z,230.68
2023-05-02T02:49:09.597Z,221.35
2023-05-02T02:50:09.648Z,227.65
2023-05-02T02:51:09.670Z,227.58
2023-05-02T02:52:09.672Z,225.10
2023-05-02T02:53:09.735Z,227.99
2023-05-02T02:54:23.001Z,223.32
2023-05-02T02:55:10.748Z,223.71
2023-05-02T02:56:09.740Z,224.28
2023-05-02T02:57:09.743Z,224.73
2023-05-02T02:58:09.751Z,224.09
2023-05-02T02:59:09.719Z,230.13
2023-05-02T03:00:09.724Z,226.88
2023-05-02T03:01:09.727Z,227.60
2023-05-02T03:02:09.792Z,230.65
2023-05-02T03:03:09.774Z,224.66
2023-05-02T03:04:09.707Z,226.77
2023-05-02T03:05:09.715Z,222.75
2023-05-02T03:06:09.649Z,229.08
2023-05-02T03:07:09.644Z,231.28
2023-05-02T03:08:09.650Z,229.69
2023-05-02T03:09:09.629Z,228.03
2023-05-02T03:10:09.618Z,232.39
2023-05-02T03:11:09.620Z,233.20
2023-05-02T03:12:09.644Z,227.27
2023-05-02T03:13:09.638Z,227.58
2023-05-02T03:14:09.661Z,234.73
2023-05-02T03:15:09.710Z,233.10
2023-05-02T03:16:09.761Z,232.35
2023-05-02T03:17:09.770Z,228.65
2023-05-02T03:18:09.818Z,227.11
2023-05-02T03:19:09.774Z,230.86
2023-05-02T03:20:09.836Z,233.65
2023-05-02T03:21:09.849Z,228.37
2023-05-02T03:22:09.881Z,236.06
2023-05-02T03:23:09.908Z,230.89
2023-05-02T03:24:09.993Z,231.16
2023-05-02T03:25:09.934Z,229.01
2023-05-02T03:26:09.982Z,235.67
2023-05-02T03:27:10.022Z,232.96
2023-05-02T03:28:10.043Z,231.67
2023-05-02T03:29:10.057Z,231.45
2023-05-02T03:30:10.077Z,230.89
2023-05-02T03:31:10.128Z,234.09
2023-05-02T03:32:10.256Z,231.32
2023-05-02T03:33:10.310Z,227.29
2023-05-02T03:34:10.171Z,227.29
2023-05-02T03:35:10.194Z,228.85
2023-05-02T03:36:10.220Z,232.54
2023-05-02T03:37:10.237Z,230.43
2023-05-02T03:38:10.313Z,227.63
2023-05-02T03:39:10.290Z,228.11
2023-05-02T03:40:10.315Z,231.85
2023-05-02T03:41:10.312Z,232.51
2023-05-02T03:42:10.399Z,230.33
2023-05-02T03:43:10.404Z,232.46
2023-05-02T03:44:10.416Z,231.86
2023-05-02T03:45:10.578Z,226.10
2023-05-02T03:46:10.502Z,228.01
2023-05-02T03:47:10.560Z,227.79
2023-05-02T03:48:10.595Z,224.17
2023-05-02T03:49:10.572Z,231.97
2023-05-02T03:50:10.600Z,225.70
2023-05-02T03:51:10.612Z,225.53
2023-05-02T03:52:10.641Z,226.18
2023-05-02T03:53:10.688Z,230.32
2023-05-02T03:54:10.758Z,230.25
2023-05-02T03:55:10.746Z,229.15
2023-05-02T03:56:11.043Z,228.12
2023-05-02T03:57:10.765Z,227.64
2023-05-02T03:58:10.831Z,228.90
2023-05-02T03:59:10.856Z,219.79
2023-05-02T04:00:10.873Z,201.82
2023-05-02T04:01:10.852Z,192.00
2023-05-02T04:02:10.919Z,185.91
2023-05-02T04:03:10.977Z,182.52
2023-05-02T04:04:10.993Z,178.40
2023-05-02T04:05:10.963Z,177.73
2023-05-02T04:06:10.991Z,173.64
2023-05-02T04:07:10.975Z,166.62
2023-05-02T04:08:10.993Z,166.00
2023-05-02T04:09:11.044Z,160.98
2023-05-02T04:10:11.022Z,163.12
2023-05-02T04:11:11.064Z,160.01
2023-05-02T04:12:11.036Z,158.57
2023-05-02T04:13:11.015Z,156.29
2023-05-02T04:14:11.073Z,156.50
2023-05-02T04:15:11.090Z,154.69
2023-05-02T04:16:11.096Z,156.24
2023-05-02T04:17:11.115Z,152.62
2023-05-02T04:18:11.141Z,150.21
2023-05-02T04:19:11.117Z,146.50
2023-05-02T04:20:11.136Z,149.61
2023-05-02T04:21:11.124Z,146.92
2023-05-02T04:22:11.122Z,145.76
2023-05-02T04:23:11.139Z,147.27
2023-05-02T04:24:11.201Z,148.08
2023-05-02T04:25:11.156Z,144.68
2023-05-02T04:26:11.145Z,143.45
2023-05-02T04:27:13.724Z,143.65
2023-05-02T04:28:11.248Z,146.61
2023-05-02T04:29:11.176Z,146.78
2023-05-02T04:30:11.117Z,145.41
2023-05-02T04:31:11.181Z,147.78
2023-05-02T04:32:11.148Z,145.73
2023-05-02T04:33:11.120Z,143.74
2023-05-02T04:34:11.119Z,147.74
2023-05-02T04:35:11.121Z,148.95
2023-05-02T04:36:11.062Z,150.20
2023-05-02T04:37:11.086Z,148.92
2023-05-02T04:38:11.095Z,148.95
2023-05-02T04:39:11.097Z,147.92
2023-05-02T04:40:11.112Z,145.43
2023-05-02T04:41:11.368Z,147.50
2023-05-02T04:42:11.064Z,150.88
2023-05-02T04:43:11.049Z,148.44
2023-05-02T04:44:11.086Z,151.48
2023-05-02T04:45:11.031Z,149.51
2023-05-02T04:46:11.067Z,151.25
2023-05-02T04:47:11.034Z,150.39
2023-05-02T04:48:11.069Z,152.96
2023-05-02T04:49:11.012Z,150.97
2023-05-02T04:50:10.977Z,158.15
2023-05-02T04:51:10.990Z,156.44
2023-05-02T04:52:10.980Z,162.02
2023-05-02T04:53:10.982Z,156.54
2023-05-02T04:54:10.987Z,155.05
2023-05-02T04:55:10.976Z,165.12
2023-05-02T04:56:10.936Z,164.50
2023-05-02T04:57:10.966Z,164.76
2023-05-02T04:58:10.948Z,157.25
2023-05-02T04:59:10.912Z,162.15
2023-05-02T05:00:11.296Z,161.58
2023-05-02T05:02:29.870Z,25.00
2023-05-02T05:03:30.007Z,25.00
2023-05-02T05:04:29.788Z,25.00
2023-05-02T05:05:29.892Z,25.00
2023-05-02T05:06:29.833Z,25.00
2023-05-02T05:07:29.756Z,30.13
2023-05-02T05:08:30.040Z,29.82
2023-05-02T05:09:29.819Z,26.95
2023-05-02T05:10:29.713Z,29.01
2023-05-02T05:11:29.738Z,35.18
2023-05-02T05:12:29.795Z,34.10
2023-05-02T05:13:29.714Z,41.62
2023-05-02T05:14:30.058Z,47.94
2023-05-02T05:15:29.685Z,47.79
2023-05-02T05:16:29.696Z,52.23
2023-05-02T05:17:29.681Z,46.05
2023-05-02T05:18:29.681Z,47.05
2023-05-02T05:19:29.686Z,35.27
2023-05-02T05:20:29.696Z,35.53
2023-05-02T05:21:29.648Z,9.15
2023-05-02T05:22:29.650Z,0.00
2023-05-02T05:23:29.618Z,0.00
2023-05-02T05:24:29.977Z,0.00
2023-05-02T05:25:29.617Z,0.00
2023-05-02T05:26:29.633Z,0.00
2023-05-02T05:27:29.677Z,0.40
2023-05-02T05:28:29.650Z,19.70
2023-05-02T05:29:29.607Z,25.49
2023-05-02T05:30:29.607Z,38.75
2023-05-02T05:31:29.970Z,57.34
2023-05-02T05:32:29.622Z,89.92
2023-05-02T05:33:29.926Z,103.82
2023-05-02T05:34:30.279Z,107.71
2023-05-02T05:35:29.560Z,127.77
2023-05-02T05:36:29.643Z,221.32
2023-05-02T05:37:29.955Z,227.37
2023-05-02T05:38:29.970Z,247.36
2023-05-02T05:39:30.066Z,245.84
2023-05-02T05:40:29.529Z,228.87
2023-05-02T05:41:29.824Z,195.53
2023-05-02T05:42:29.873Z,201.24
2023-05-02T05:43:29.523Z,188.08
2023-05-02T05:44:30.062Z,175.78
2023-05-02T05:45:29.496Z,168.28
2023-05-02T05:47:48.670Z,25.00
2023-05-02T05:48:48.438Z,25.00
2023-05-02T05:49:48.619Z,25.00
2023-05-02T05:50:48.448Z,25.00
2023-05-02T05:51:48.392Z,25.00
2023-05-02T05:52:48.368Z,28.94
2023-05-02T05:53:48.396Z,35.15
2023-05-02T05:54:48.411Z,38.34
2023-05-02T05:55:48.378Z,40.44
2023-05-02T05:56:49.444Z,19.17
2023-05-02T05:57:48.367Z,25.00
2023-05-02T05:58:48.341Z,19.33
2023-05-02T05:59:48.328Z,32.89
2023-05-02T06:00:48.302Z,40.56
2023-05-02T06:01:48.319Z,53.91
2023-05-02T06:02:48.463Z,74.51
2023-05-02T06:03:48.462Z,59.61
2023-05-02T06:04:48.345Z,43.55
2023-05-02T06:05:48.266Z,33.31
2023-05-02T06:06:48.298Z,29.08
2023-05-02T06:07:48.255Z,42.12
2023-05-02T06:08:48.278Z,27.28
2023-05-02T06:09:48.243Z,26.60
2023-05-02T06:10:48.269Z,38.13
2023-05-02T06:11:48.222Z,51.02
2023-05-02T06:12:49.210Z,57.42
2023-05-02T06:13:48.247Z,57.76
2023-05-02T06:14:48.613Z,58.40
2023-05-02T06:15:48.310Z,75.34
2023-05-02T06:16:48.259Z,66.63
2023-05-02T06:17:48.257Z,67.24
2023-05-02T06:18:48.212Z,104.20
2023-05-02T06:19:48.623Z,149.59
2023-05-02T06:20:48.332Z,161.83
2023-05-02T06:21:48.393Z,140.40
2023-05-02T06:22:48.495Z,91.11
2023-05-02T06:23:48.504Z,49.28
2023-05-02T06:24:48.657Z,36.09
2023-05-02T06:25:48.650Z,29.29
2023-05-02T06:26:48.695Z,65.84
2023-05-02T06:27:48.698Z,128.83
2023-05-02T06:28:48.775Z,225.25
2023-05-02T06:29:48.761Z,250.00
2023-05-02T06:30:48.796Z,250.00
2023-05-02T06:31:48.886Z,244.46
2023-05-02T06:32:48.995Z,242.36
2023-05-02T06:33:48.959Z,243.58
2023-05-02T06:34:48.991Z,230.82
2023-05-02T06:35:48.947Z,218.38
2023-05-02T06:36:49.011Z,195.20
2023-05-02T06:37:49.008Z,182.49
2023-05-02T06:38:49.107Z,178.23
2023-05-02T06:39:49.112Z,193.47
2023-05-02T06:40:49.117Z,208.79
2023-05-02T06:41:49.190Z,216.42
2023-05-02T06:42:49.198Z,224.26
2023-05-02T06:43:49.168Z,224.85
2023-05-02T06:44:49.623Z,228.69
2023-05-02T06:45:49.209Z,229.94
2023-05-02T06:46:49.220Z,230.14
2023-05-02T06:47:49.260Z,236.36
2023-05-02T06:48:49.246Z,235.67
2023-05-02T06:49:49.319Z,237.84
2023-05-02T06:50:50.054Z,234.00
2023-05-02T06:51:49.300Z,237.81
2023-05-02T06:52:49.342Z,233.26
2023-05-02T06:53:49.312Z,237.04
2023-05-02T06:54:50.333Z,243.03
2023-05-02T06:55:49.373Z,245.12
2023-05-02T06:56:49.326Z,243.26
2023-05-02T06:57:50.137Z,246.22
2023-05-02T06:58:49.454Z,246.38
2023-05-02T06:59:49.704Z,247.01
2023-05-02T07:00:49.449Z,246.72
2023-05-02T07:01:49.410Z,247.51
2023-05-02T07:02:50.172Z,247.58
2023-05-02T07:03:49.540Z,245.71
2023-05-02T07:04:49.452Z,243.95
2023-05-02T07:05:49.428Z,244.96
2023-05-02T07:06:49.530Z,246.32
2023-05-02T07:07:49.460Z,243.08
2023-05-02T07:08:49.468Z,244.42
2023-05-02T07:09:49.666Z,245.13
2023-05-02T07:10:49.608Z,242.65
2023-05-02T07:11:49.477Z,240.64
2023-05-02T07:12:49.500Z,241.55
2023-05-02T07:13:49.498Z,245.84
2023-05-02T07:14:49.484Z,249.48
2023-05-02T07:15:49.530Z,248.02
2023-05-02T07:16:49.615Z,243.17
2023-05-02T07:17:49.699Z,242.41
2023-05-02T07:18:49.549Z,235.26
2023-05-02T07:19:49.625Z,243.70
2023-05-02T07:20:49.755Z,248.05
2023-05-02T07:21:49.591Z,250.00
2023-05-02T07:22:49.639Z,205.64
2023-05-02T07:23:49.608Z,201.60
2023-05-02T07:24:49.652Z,215.33
2023-05-02T07:25:49.635Z,214.88
2023-05-02T07:26:49.645Z,222.59
2023-05-02T07:27:49.701Z,231.07
2023-05-02T07:28:49.648Z,243.16
2023-05-02T07:29:49.614Z,244.10
2023-05-02T07:30:50.151Z,250.16
2023-05-02T07:31:49.702Z,236.02
2023-05-02T07:32:49.748Z,205.87
2023-05-02T07:33:49.685Z,171.64
2023-05-02T07:34:49.688Z,160.20
2023-05-02T07:35:50.175Z,146.47
2023-05-02T07:36:49.746Z,185.22
2023-05-02T07:37:49.796Z,209.36
2023-05-02T07:38:49.782Z,213.62
2023-05-02T07:39:49.787Z,220.90
2023-05-02T07:40:50.141Z,220.89
2023-05-02T07:41:49.808Z,220.69
2023-05-02T07:42:49.800Z,217.84
2023-05-02T07:43:49.861Z,224.07
2023-05-02T07:44:49.823Z,232.54
2023-05-02T07:45:49.881Z,238.98
2023-05-02T07:46:49.844Z,239.38
2023-05-02T07:47:49.919Z,249.24
2023-05-02T07:48:49.790Z,244.13
2023-05-02T07:49:49.787Z,249.98
2023-05-02T07:50:50.169Z,250.26
2023-05-02T07:51:49.869Z,248.92
2023-05-02T07:52:49.848Z,249.66
2023-05-02T07:53:49.895Z,249.15
2023-05-02T07:54:49.910Z,249.98
2023-05-02T07:55:50.414Z,248.11
2023-05-02T07:56:49.972Z,244.49
2023-05-02T07:57:49.912Z,239.10
2023-05-02T07:58:49.922Z,246.04
2023-05-02T07:59:49.935Z,235.88
2023-05-02T08:00:49.913Z,245.78
2023-05-02T08:01:49.945Z,244.79
2023-05-02T08:02:50.001Z,228.32
2023-05-02T08:03:50.192Z,218.41
2023-05-02T08:04:50.020Z,245.39
2023-05-02T08:05:50.006Z,250.00
2023-05-02T08:06:50.133Z,252.77
2023-05-02T08:07:50.083Z,250.00
2023-05-02T08:08:50.171Z,250.00
2023-05-02T08:09:50.206Z,250.00
2023-05-02T08:10:50.258Z,248.82
2023-05-02T08:11:50.260Z,244.53
2023-05-02T08:12:50.272Z,246.59
2023-05-02T08:13:50.344Z,250.32
2023-05-02T08:14:50.388Z,250.00
2023-05-02T08:15:50.457Z,248.67
2023-05-02T08:16:50.520Z,248.40
2023-05-02T08:17:50.496Z,249.26
2023-05-02T08:18:50.403Z,246.67
2023-05-02T08:19:50.419Z,246.00
2023-05-02T08:20:50.537Z,245.65
2023-05-02T08:21:50.532Z,247.31
2023-05-02T08:22:50.505Z,249.32
2023-05-02T08:23:50.562Z,249.79
2023-05-02T08:24:50.569Z,249.32
2023-05-02T08:25:50.629Z,250.00
2023-05-02T08:26:50.677Z,248.86
2023-05-02T08:27:50.732Z,248.73
2023-05-02T08:28:50.791Z,247.91
2023-05-02T08:29:50.812Z,248.24
2023-05-02T08:30:50.841Z,247.38
2023-05-02T08:31:50.928Z,246.01
2023-05-02T08:32:51.072Z,250.00
2023-05-02T08:33:51.022Z,240.80
2023-05-02T08:34:51.164Z,208.07
2023-05-02T08:35:51.203Z,180.31
2023-05-02T08:36:51.153Z,154.10
2023-05-02T08:37:51.156Z,138.47
2023-05-02T08:38:51.158Z,130.66
2023-05-02T08:39:51.128Z,162.63
2023-05-02T08:40:52.142Z,176.89
2023-05-02T08:41:51.173Z,154.94
2023-05-02T08:42:51.119Z,140.62
2023-05-02T08:43:51.189Z,140.52
2023-05-02T08:44:51.160Z,141.62
2023-05-02T08:45:51.693Z,119.67
2023-05-02T08:46:51.259Z,97.29
2023-05-02T08:47:51.255Z,77.39
2023-05-02T08:48:51.228Z,60.90
2023-05-02T08:49:51.245Z,54.38
2023-05-02T08:50:51.712Z,47.32
2023-05-02T08:51:51.320Z,62.66
2023-05-02T08:52:51.316Z,86.92
2023-05-02T08:53:51.318Z,95.31
2023-05-02T08:54:51.319Z,104.72
2023-05-02T08:55:51.351Z,114.13
2023-05-02T08:56:51.702Z,121.59
2023-05-02T08:57:51.351Z,129.27
2023-05-02T08:58:51.374Z,131.41
2023-05-02T08:59:51.394Z,130.52
2023-05-02T09:00:51.492Z,135.48
2023-05-02T09:01:51.461Z,138.41
2023-05-02T09:02:51.548Z,152.27
2023-05-02T09:03:51.557Z,154.34
2023-05-02T09:04:51.579Z,149.28
2023-05-02T09:05:51.643Z,148.92
2023-05-02T09:06:51.828Z,165.14
2023-05-02T09:07:51.839Z,167.31
2023-05-02T09:08:51.872Z,190.80
2023-05-02T09:09:51.892Z,209.10
2023-05-02T09:10:51.982Z,218.52
2023-05-02T09:11:52.029Z,223.25
2023-05-02T09:12:52.104Z,224.33
2023-05-02T09:13:52.154Z,225.44
2023-05-02T09:14:52.226Z,227.52
2023-05-02T09:15:52.276Z,228.10
2023-05-02T09:16:52.358Z,232.26
2023-05-02T09:17:52.417Z,232.68
2023-05-02T09:18:52.459Z,233.75
2023-05-02T09:19:52.528Z,235.33
2023-05-02T09:20:52.571Z,233.65
2023-05-02T09:21:52.688Z,237.43
2023-05-02T09:22:52.654Z,210.08
2023-05-02T09:23:52.655Z,185.90
2023-05-02T09:24:52.612Z,196.18
2023-05-02T09:25:52.631Z,214.88
2023-05-02T09:26:52.709Z,225.94
2023-05-02T09:27:52.625Z,247.05
2023-05-02T09:28:52.678Z,249.17
2023-05-02T09:29:52.673Z,232.46
2023-05-02T09:30:52.805Z,222.15
2023-05-02T09:31:56.026Z,211.43
2023-05-02T09:32:52.779Z,211.71
2023-05-02T09:33:52.667Z,214.27
2023-05-02T09:34:52.668Z,222.41
2023-05-02T09:35:52.808Z,234.82
2023-05-02T09:36:52.679Z,225.49
2023-05-02T09:37:52.737Z,233.15
2023-05-02T09:38:52.641Z,240.67
2023-05-02T09:39:52.595Z,250.00
2023-05-02T09:40:52.664Z,250.00
2023-05-02T09:41:52.675Z,256.32
2023-05-02T09:42:52.708Z,252.77
2023-05-02T09:43:52.587Z,252.88
2023-05-02T09:44:52.580Z,232.01
2023-05-02T09:45:52.618Z,206.41
2023-05-02T09:46:52.543Z,184.44
2023-05-02T09:47:52.607Z,176.67
2023-05-02T09:48:52.564Z,182.94
2023-05-02T09:49:52.574Z,193.55
2023-05-02T09:50:52.573Z,192.99
2023-05-02T09:51:52.615Z,200.04
2023-05-02T09:52:52.555Z,200.02
2023-05-02T09:53:52.510Z,204.74
2023-05-02T09:54:52.515Z,208.29
2023-05-02T09:55:52.507Z,210.68
2023-05-02T09:56:52.469Z,210.50
2023-05-02T09:57:52.516Z,210.06
2023-05-02T09:58:52.495Z,212.81
2023-05-02T09:59:52.533Z,214.76
2023-05-02T10:00:52.578Z,218.50
2023-05-02T10:01:52.625Z,220.17
2023-05-02T10:02:52.754Z,220.03
2023-05-02T10:03:52.817Z,217.29
2023-05-02T10:04:52.822Z,217.31
2023-05-02T10:05:52.838Z,216.51
2023-05-02T10:06:53.013Z,213.96
2023-05-02T10:07:52.953Z,210.15
2023-05-02T10:08:53.070Z,212.53
2023-05-02T10:09:53.115Z,215.03
2023-05-02T10:10:53.117Z,215.57
2023-05-02T10:11:53.251Z,214.65
2023-05-02T10:12:53.256Z,212.59
2023-05-02T10:13:53.396Z,213.77
2023-05-02T10:14:53.412Z,215.44
2023-05-02T10:15:53.496Z,215.48
2023-05-02T10:16:53.495Z,215.84
2023-05-02T10:17:53.626Z,216.41
2023-05-02T10:18:53.632Z,221.06
2023-05-02T10:19:53.703Z,216.24
2023-05-02T10:20:53.764Z,216.27
2023-05-02T10:21:54.217Z,214.36
2023-05-02T10:22:53.876Z,215.37
2023-05-02T10:23:53.989Z,210.95
2023-05-02T10:24:54.038Z,210.50
2023-05-02T10:25:54.352Z,211.11
2023-05-02T10:26:54.203Z,208.66
2023-05-02T10:27:54.211Z,209.71
2023-05-02T10:28:54.279Z,212.07
2023-05-02T10:29:54.317Z,210.80
2023-05-02T10:30:54.397Z,209.63
2023-05-02T10:31:54.793Z,211.22
2023-05-02T10:32:54.551Z,210.92
2023-05-02T10:33:54.568Z,209.67
2023-05-02T10:34:54.613Z,208.88
2023-05-02T10:35:54.695Z,210.11
2023-05-02T10:36:55.250Z,229.31
2023-05-02T10:37:54.814Z,234.65
2023-05-02T10:38:54.864Z,208.21
2023-05-02T10:39:54.919Z,183.22
2023-05-02T10:40:54.912Z,174.58
2023-05-02T10:41:55.228Z,146.24
2023-05-02T10:42:54.878Z,144.10
2023-05-02T10:43:54.924Z,149.16
2023-05-02T10:44:54.899Z,154.97
2023-05-02T10:45:55.066Z,151.48
2023-05-02T10:46:55.001Z,156.16
2023-05-02T10:47:55.140Z,162.49
2023-05-02T10:48:55.152Z,163.90
2023-05-02T10:49:55.267Z,170.95
2023-05-02T10:50:55.137Z,174.01
2023-05-02T10:51:55.687Z,175.82
2023-05-02T10:52:55.298Z,179.78
2023-05-02T10:53:55.334Z,183.49
2023-05-02T10:54:55.368Z,184.15
2023-05-02T10:55:55.490Z,183.45
2023-05-02T10:56:55.573Z,183.59
2023-05-02T10:57:55.524Z,183.51
2023-05-02T10:58:55.621Z,178.67
2023-05-02T10:59:55.685Z,177.11
2023-05-02T11:00:55.842Z,174.21
2023-05-02T11:01:56.364Z,167.13
2023-05-02T11:02:56.023Z,165.94
2023-05-02T11:03:55.960Z,166.92
2023-05-02T11:04:56.069Z,169.77
2023-05-02T11:05:56.083Z,172.55
2023-05-02T11:06:56.256Z,171.39
2023-05-02T11:07:56.312Z,177.59
2023-05-02T11:08:56.279Z,171.60
2023-05-02T11:09:56.273Z,186.68
2023-05-02T11:10:56.334Z,189.79
2023-05-02T11:11:56.704Z,184.95
2023-05-02T11:12:56.452Z,178.83
2023-05-02T11:13:56.519Z,179.59
2023-05-02T11:14:56.567Z,178.81
2023-05-02T11:15:56.650Z,172.40
2023-05-02T11:16:56.757Z,173.01
2023-05-02T11:17:56.720Z,171.59
2023-05-02T11:18:56.779Z,169.42
2023-05-02T11:19:56.879Z,168.21
2023-05-02T11:20:56.915Z,171.27
2023-05-02T11:21:57.003Z,172.62
2023-05-02T11:22:57.057Z,181.09
2023-05-02T11:23:57.135Z,184.29
2023-05-02T11:24:57.200Z,185.67
2023-05-02T11:25:57.214Z,184.24
2023-05-02T11:26:57.281Z,178.95
2023-05-02T11:27:57.320Z,176.95
2023-05-02T11:28:57.442Z,179.90
2023-05-02T11:29:57.494Z,193.29
2023-05-02T11:30:58.063Z,223.33
2023-05-02T11:31:57.840Z,226.43
2023-05-02T11:32:57.618Z,210.00
2023-05-02T11:33:57.646Z,192.64
2023-05-02T11:34:58.139Z,145.64
2023-05-02T11:35:57.708Z,130.35
2023-05-02T11:36:58.202Z,83.93
2023-05-02T11:37:57.866Z,72.63
2023-05-02T11:38:57.965Z,101.84
2023-05-02T11:39:57.989Z,99.82
2023-05-02T11:40:58.008Z,113.86
2023-05-02T11:41:58.047Z,119.64
2023-05-02T11:42:58.704Z,118.70
2023-05-02T11:43:58.216Z,121.17
2023-05-02T11:44:58.587Z,122.66
2023-05-02T11:45:58.368Z,125.58
2023-05-02T11:46:58.415Z,126.32
2023-05-02T11:47:58.508Z,129.21
2023-05-02T11:48:58.527Z,134.94
2023-05-02T11:49:58.580Z,140.21
2023-05-02T11:50:58.603Z,72.67
2023-05-02T11:51:58.716Z,104.59
2023-05-02T11:52:58.727Z,107.99
2023-05-02T11:53:58.792Z,110.60
2023-05-02T11:54:58.953Z,112.62
2023-05-02T11:55:58.946Z,113.94
2023-05-02T11:56:58.994Z,111.41
2023-05-02T11:57:59.064Z,111.21
2023-05-02T11:58:59.122Z,109.51
2023-05-02T11:59:59.177Z,109.66
2023-05-02T12:00:59.223Z,109.15
2023-05-02T12:01:59.284Z,112.75
2023-05-02T12:02:59.441Z,115.51
2023-05-02T12:03:59.435Z,114.89
2023-05-02T12:04:59.717Z,104.15
2023-05-02T12:05:59.679Z,111.73
2023-05-02T12:06:59.691Z,116.67
2023-05-02T12:07:59.640Z,114.90
2023-05-02T12:08:59.755Z,115.73
2023-05-02T12:09:59.747Z,115.46
2023-05-02T12:10:59.815Z,116.92
2023-05-02T12:11:59.921Z,114.16
2023-05-02T12:12:59.963Z,114.33
2023-05-02T12:14:00.055Z,116.27
2023-05-02T12:15:00.280Z,120.01
2023-05-02T12:16:00.249Z,114.35
2023-05-02T12:17:00.241Z,125.96
2023-05-02T12:18:00.278Z,164.33
2023-05-02T12:19:00.311Z,171.36
2023-05-02T12:20:00.393Z,172.84
2023-05-02T12:21:00.411Z,185.78
2023-05-02T12:22:00.494Z,167.61
2023-05-02T12:23:00.563Z,170.19
2023-05-02T12:24:00.537Z,151.44
2023-05-02T12:25:00.788Z,145.81
2023-05-02T12:26:00.697Z,141.40
2023-05-02T12:27:00.730Z,136.67
2023-05-02T12:28:00.800Z,134.75
2023-05-02T12:29:00.887Z,68.81
2023-05-02T12:30:01.040Z,89.28
2023-05-02T12:31:00.966Z,100.90
2023-05-02T12:32:01.003Z,110.30
2023-05-02T12:33:01.009Z,74.34
2023-05-02T12:34:00.957Z,67.26